Oakes, ND

6:37 AM CDT on April 23, 2017 (GMT -0500)
Oakes

Weather History for K2D5 - March, 2014

Change the Weather History Date:

Sunday, March 30, 2014

  Actual Average (KP67) Record (KP67)
Temperature  
Mean Temperature 40 °F -  
Max Temperature 55 °F 40 °F 48 °F (1998)
Min Temperature 24 °F 27 °F 27 °F (1997)
Degree Days  
Heating Degree Days 26    
Moisture  
Dew Point 32 °F    
Average Humidity 79    
Maximum Humidity 100    
Minimum Humidity 47    
Precipitation  
Precipitation 0.00 in - - ()
Sea Level Pressure  
Sea Level Pressure 29.77 in    
Wind  
Wind Speed 10 mph (NNE)    
Max Wind Speed 25 mph    
Max Gust Speed 36 mph    
Visibility 10 miles    
Events      
Averages and records for this station are not official NWS values.
T = Trace of Precipitation, MM = Missing Value Source: NWS Daily Summary

Daily Weather History Graph

Daily Weather History Graph

Search for Another Location

Airport or City:

Trip Planner

Search our weather history database for the weather conditions in past years. The results will help you decide how hot, cold, wet, or windy it might be!

Date:

Astronomy

Mar. 30, 2014 Rise Set
Actual Time 7:15 AM CDT 7:58 PM CDT
Civil Twilight 6:45 AM CDT 8:28 PM CDT
Nautical Twilight 6:09 AM CDT 9:04 PM CDT
Astronomical Twilight 5:32 AM CDT 9:42 PM CDT
Moon 7:02 AM CDT (3/30) 8:14 PM CDT (3/30)
Length of Visible Light 13h 43m
Length of Day
12h 42m
Waning Crescent, 0% of the Moon is Illuminated
Mar 30
Waning Crescent
Mar 30
New
Apr 7
First Quarter
Apr 15
Full
Apr 22
Last Quarter

Hourly Weather History & Observations

Time (CDT) Temp. Windchill Dew Point Humidity Pressure Visibility Wind Dir Wind Speed Gust Speed Precip Events Conditions
12:15 AM 32.0 °F 24.2 °F 28.4 °F 87% 29.73 in 10.0 mi SSE 9.2 mph - N/A   Clear
12:35 AM 32.0 °F 26.4 °F 30.2 °F 93% 29.72 in 10.0 mi SSE 5.8 mph - N/A   Clear
12:55 AM 32.0 °F 24.2 °F 30.2 °F 93% 29.73 in 10.0 mi South 9.2 mph - N/A   Clear
1:15 AM 32.0 °F 24.8 °F 28.4 °F 87% 29.71 in 10.0 mi South 8.1 mph - N/A   Clear
1:35 AM 32.0 °F 25.6 °F 28.4 °F 87% 29.71 in 10.0 mi SSE 6.9 mph - N/A   Clear
1:55 AM 32.0 °F 25.6 °F 28.4 °F 87% 29.71 in 10.0 mi South 6.9 mph - N/A   Clear
2:15 AM 32.0 °F 28.7 °F 28.4 °F 87% 29.72 in 10.0 mi South 3.5 mph - N/A   Clear
2:35 AM 32.0 °F 21.6 °F 30.2 °F 93% 29.75 in 10.0 mi WNW 15.0 mph 20.7 mph N/A   Clear
2:55 AM 32.0 °F 26.4 °F 30.2 °F 93% 29.73 in 10.0 mi WSW 5.8 mph - N/A   Clear
3:15 AM 32.0 °F 27.5 °F 30.2 °F 93% 29.74 in 10.0 mi WNW 4.6 mph - N/A   Clear
3:35 AM 32.0 °F 28.7 °F 30.2 °F 93% 29.73 in 10.0 mi WNW 3.5 mph - N/A   Clear
3:55 AM 30.2 °F - 28.4 °F 93% 29.74 in 10.0 mi Calm Calm - N/A   Clear
4:15 AM 28.4 °F 24.6 °F 28.4 °F 100% 29.73 in 10.0 mi NNE 3.5 mph - N/A   Clear
4:35 AM 28.4 °F - 26.6 °F 93% 29.73 in 10.0 mi Calm Calm - N/A   Clear
4:55 AM 28.4 °F - 28.4 °F 100% 29.73 in 10.0 mi Calm Calm - N/A   Clear
5:15 AM 28.4 °F - 28.4 °F 100% 29.73 in 10.0 mi Calm Calm - N/A   Clear
5:35 AM 26.6 °F 21.2 °F 26.6 °F 100% 29.72 in 10.0 mi ESE 4.6 mph - N/A   Clear
5:55 AM 24.8 °F 17.9 °F 24.8 °F 100% 29.73 in 10.0 mi SSE 5.8 mph - N/A   Clear
6:15 AM 24.8 °F 20.5 °F 24.8 °F 100% 29.73 in 10.0 mi South 3.5 mph - N/A   Clear
6:35 AM 26.6 °F 18.2 °F 26.6 °F 100% 29.76 in 9.0 mi SSW 8.1 mph - N/A   Clear
6:55 AM 28.4 °F 21.2 °F 28.4 °F 100% 29.77 in 10.0 mi SSW 6.9 mph - N/A   Mostly Cloudy
7:15 AM 28.4 °F 22.2 °F 28.4 °F 100% 29.77 in 9.0 mi WSW 5.8 mph - N/A   Scattered Clouds
7:35 AM 28.4 °F - 28.4 °F 100% 29.77 in 9.0 mi Calm Calm - N/A   Partly Cloudy
7:55 AM 30.2 °F - 30.2 °F 100% 29.77 in 10.0 mi Calm Calm - N/A   Clear
8:15 AM 30.2 °F 25.4 °F 30.2 °F 100% 29.79 in 9.0 mi SW 4.6 mph - N/A   Clear
8:35 AM 32.0 °F 28.7 °F 32.0 °F 100% 29.79 in 8.0 mi West 3.5 mph - N/A   Partly Cloudy
8:55 AM 33.8 °F - 33.8 °F 100% 29.78 in 10.0 mi Calm Calm - N/A   Mostly Cloudy
9:15 AM 35.6 °F - 35.6 °F 100% 29.78 in 10.0 mi Calm Calm - N/A   Mostly Cloudy
9:35 AM 37.4 °F - 35.6 °F 93% 29.78 in 10.0 mi Calm Calm - N/A   Scattered Clouds
9:55 AM 39.2 °F 34.2 °F 37.4 °F 93% 29.79 in 10.0 mi NNW 6.9 mph - N/A   Scattered Clouds
10:15 AM 44.6 °F 39.7 °F 37.4 °F 76% 29.79 in 10.0 mi NNW 9.2 mph - N/A   Clear
10:35 AM 46.4 °F 42.9 °F 37.4 °F 71% 29.80 in 10.0 mi North 6.9 mph - N/A   Partly Cloudy
10:55 AM 48.2 °F - 37.4 °F 66% 29.80 in 10.0 mi North 9.2 mph - N/A   Scattered Clouds
11:15 AM 48.2 °F - 37.4 °F 66% 29.81 in 10.0 mi North 10.4 mph - N/A   Mostly Cloudy
11:35 AM 48.2 °F - 37.4 °F 66% 29.82 in 10.0 mi NNE 10.4 mph - N/A   Mostly Cloudy
11:55 AM 50.0 °F - 37.4 °F 62% 29.82 in 10.0 mi NNE 12.7 mph - N/A   Overcast
12:15 PM 50.0 °F - 37.4 °F 62% 29.81 in 10.0 mi NNE 11.5 mph - N/A   Mostly Cloudy
12:35 PM 51.8 °F - 37.4 °F 58% 29.80 in 10.0 mi NE 13.8 mph 17.3 mph N/A   Mostly Cloudy
12:55 PM 53.6 °F - 37.4 °F 54% 29.80 in 10.0 mi NE 16.1 mph - N/A   Scattered Clouds
1:15 PM 53.6 °F - 37.4 °F 54% 29.80 in 10.0 mi NE 15.0 mph - N/A   Partly Cloudy
1:35 PM 53.6 °F - 37.4 °F 54% 29.79 in 10.0 mi NE 15.0 mph - N/A   Partly Cloudy
1:55 PM 53.6 °F - 37.4 °F 54% 29.78 in 10.0 mi NE 18.4 mph - N/A   Partly Cloudy
2:15 PM 55.4 °F - 35.6 °F 47% 29.78 in 10.0 mi NE 21.9 mph 25.3 mph N/A   Partly Cloudy
2:35 PM 55.4 °F - 35.6 °F 47% 29.78 in 10.0 mi ENE 21.9 mph 27.6 mph N/A   Clear
2:55 PM 55.4 °F - 37.4 °F 51% 29.79 in 10.0 mi NE 19.6 mph 25.3 mph N/A   Clear
3:15 PM 53.6 °F - 37.4 °F 54% 29.78 in 10.0 mi NE 18.4 mph 26.5 mph N/A   Clear
3:35 PM 53.6 °F - 37.4 °F 54% 29.77 in 10.0 mi NE 19.6 mph - N/A   Clear
3:55 PM 53.6 °F - 37.4 °F 54% 29.77 in 10.0 mi NE 21.9 mph - N/A   Partly Cloudy
4:15 PM 53.6 °F - 37.4 °F 54% 29.78 in 10.0 mi NE 17.3 mph 25.3 mph N/A   Partly Cloudy
4:35 PM 51.8 °F - 35.6 °F 54% 29.78 in 10.0 mi NE 18.4 mph 23.0 mph N/A   Partly Cloudy
4:55 PM 50.0 °F - 35.6 °F 58% 29.78 in 10.0 mi NNE 18.4 mph 23.0 mph N/A   Clear
5:15 PM 50.0 °F - 33.8 °F 54% 29.78 in 10.0 mi NNE 21.9 mph - N/A   Clear
5:35 PM 48.2 °F - 33.8 °F 58% 29.78 in 10.0 mi NNE 21.9 mph 26.5 mph N/A   Clear
5:55 PM 48.2 °F - 32.0 °F 54% 29.76 in 10.0 mi NNE 25.3 mph 28.8 mph N/A   Partly Cloudy
6:15 PM 46.4 °F 38.5 °F 32.0 °F 57% 29.78 in 10.0 mi NNE 21.9 mph 26.5 mph N/A   Scattered Clouds
6:35 PM 44.6 °F 36.9 °F 32.0 °F 61% 29.79 in 10.0 mi NNE 18.4 mph 23.0 mph N/A   Scattered Clouds
6:55 PM 44.6 °F 36.4 °F 32.0 °F 61% 29.79 in 10.0 mi NNE 20.7 mph - N/A   Clear
7:15 PM 42.8 °F 34.0 °F 32.0 °F 66% 29.78 in 10.0 mi NNE 20.7 mph 27.6 mph N/A   Clear
7:35 PM 41.0 °F 31.1 °F 32.0 °F 70% 29.77 in 10.0 mi NNE 23.0 mph 28.8 mph N/A   Scattered Clouds
7:55 PM 41.0 °F 31.6 °F 32.0 °F 70% 29.78 in 10.0 mi NNE 20.7 mph 31.1 mph N/A   Scattered Clouds
8:15 PM 39.2 °F 29.6 °F 32.0 °F 75% 29.77 in 10.0 mi NNE 19.6 mph 31.1 mph N/A   Partly Cloudy
8:35 PM 39.2 °F 29.3 °F 32.0 °F 75% 29.78 in 10.0 mi NNE 20.7 mph - N/A   Partly Cloudy
8:55 PM 37.4 °F 25.9 °F 32.0 °F 81% 29.80 in 10.0 mi NNE 25.3 mph 33.4 mph N/A   Clear
9:15 PM 37.4 °F 26.4 °F 32.0 °F 81% 29.79 in 10.0 mi NNE 23.0 mph 29.9 mph N/A   Clear
9:35 PM 35.6 °F 23.7 °F 32.0 °F 87% 29.78 in 10.0 mi NE 24.2 mph 33.4 mph N/A   Clear
9:55 PM 35.6 °F 24.0 °F 32.0 °F 87% 29.78 in 10.0 mi NE 23.0 mph 35.7 mph N/A   Clear
10:15 PM 33.8 °F 21.9 °F 32.0 °F 93% 29.78 in 10.0 mi NE 21.9 mph 29.9 mph N/A   Clear
10:35 PM 33.8 °F 21.6 °F 30.2 °F 87% 29.78 in 10.0 mi NE 23.0 mph 32.2 mph N/A   Clear
10:55 PM 32.0 °F 19.5 °F 30.2 °F 93% 29.77 in 10.0 mi NNE 21.9 mph 25.3 mph N/A   Clear
11:15 PM 32.0 °F 19.2 °F 30.2 °F 93% 29.77 in 10.0 mi NNE 23.0 mph 33.4 mph N/A   Clear
11:35 PM 32.0 °F 19.5 °F 30.2 °F 93% 29.77 in 10.0 mi NNE 21.9 mph 29.9 mph N/A   Clear
11:55 PM 32.0 °F 18.6 °F 28.4 °F 87% 29.77 in 10.0 mi NNE 25.3 mph 34.5 mph N/A   Clear